Time;durP1;ratioP1;P1;durP2;ratioP2;P2;SDS_P1;SDS_P2;PMS_P1;PMS_P2;Temp;Humidity;BMP_temperature;BMP_pressure;BME280_temperature;BME280_humidity;BME280_pressure;Samples;Min_cycle;Max_cycle;Signal;HPM_P1;HPM_P2
2022/06/17 00:01:49;;;;;;;2.10;2.00;;;15.90;99.90;;;;;;6001192;29;20287;-69
2022/06/17 00:04:54;;;;;;;2.47;2.28;;;15.80;99.90;;;;;;6000961;29;20308;-69
2022/06/17 00:08:01;;;;;;;4.28;2.50;;;15.90;99.90;;;;;;6000951;29;20320;-69
2022/06/17 00:11:12;;;;;;;5.18;2.33;;;15.90;99.90;;;;;;6001227;29;20298;-69
2022/06/17 00:14:20;;;;;;;3.50;2.83;;;15.90;99.90;;;;;;6000700;29;20617;-69
2022/06/17 00:17:26;;;;;;;4.35;2.25;;;15.80;99.90;;;;;;6000570;29;20284;-69
2022/06/17 00:20:33;;;;;;;2.53;2.33;;;15.80;99.90;;;;;;6000491;29;20311;-69
2022/06/17 00:23:39;;;;;;;4.32;2.40;;;15.80;99.90;;;;;;6000763;29;20593;-69
2022/06/17 00:26:45;;;;;;;5.60;2.30;;;15.80;99.90;;;;;;6001348;29;20279;-69
2022/06/17 00:29:50;;;;;;;9.85;2.55;;;15.80;99.90;;;;;;6000432;29;20307;-69
2022/06/17 00:32:58;;;;;;;4.22;2.55;;;15.70;99.90;;;;;;6000730;29;20312;-69
2022/06/17 00:36:03;;;;;;;2.53;2.33;;;15.70;99.90;;;;;;5984677;29;20473;-68
2022/06/17 00:39:17;;;;;;;2.53;2.45;;;15.60;99.90;;;;;;6000340;29;20303;-68
2022/06/17 00:42:23;;;;;;;7.38;2.38;;;15.60;99.90;;;;;;6000427;29;20268;-69
2022/06/17 00:45:32;;;;;;;3.50;3.10;;;15.70;99.90;;;;;;6000812;29;20301;-69
2022/06/17 00:48:40;;;;;;;3.97;2.95;;;15.60;99.90;;;;;;5984083;29;20463;-67
2022/06/17 00:51:57;;;;;;;6.30;2.70;;;15.50;99.90;;;;;;6002647;29;20299;-68
2022/06/17 00:55:14;;;;;;;2.78;2.60;;;15.40;99.90;;;;;;6002655;29;20308;-68
2022/06/17 00:58:23;;;;;;;4.13;2.90;;;15.50;99.90;;;;;;5988105;29;20307;-68
2022/06/17 01:01:34;;;;;;;5.55;2.70;;;15.40;99.90;;;;;;6004854;29;20569;-68
2022/06/17 01:04:42;;;;;;;5.47;2.35;;;15.40;99.90;;;;;;5988263;29;20303;-68
2022/06/17 01:07:54;;;;;;;2.88;2.70;;;15.50;99.90;;;;;;6004049;29;20306;-68
2022/06/17 01:11:00;;;;;;;4.20;2.60;;;15.50;99.90;;;;;;6003066;29;20303;-69
2022/06/17 01:14:07;;;;;;;4.65;2.80;;;15.50;99.90;;;;;;6004004;29;20303;-68
2022/06/17 01:17:18;;;;;;;3.08;2.97;;;15.60;99.90;;;;;;6004003;29;20279;-68
2022/06/17 01:20:30;;;;;;;7.90;3.05;;;15.70;99.90;;;;;;5987207;29;20345;-68
2022/06/17 01:23:37;;;;;;;2.78;2.63;;;15.60;99.90;;;;;;5957327;30;20300;-68
2022/06/17 01:26:43;;;;;;;3.33;3.10;;;15.60;99.90;;;;;;5959017;30;20300;-68
2022/06/17 01:29:49;;;;;;;2.85;2.60;;;15.70;99.90;;;;;;5965043;29;20310;-68
2022/06/17 01:32:57;;;;;;;3.00;2.70;;;15.70;99.90;;;;;;5965083;29;20312;-68
2022/06/17 01:36:09;;;;;;;6.15;2.75;;;15.70;99.90;;;;;;5935825;30;20281;-68
2022/06/17 01:39:17;;;;;;;6.95;2.60;;;15.80;99.90;;;;;;5935128;29;20305;-68
2022/06/17 01:42:23;;;;;;;5.05;2.92;;;15.80;99.90;;;;;;5936234;29;20287;-68
2022/06/17 01:45:29;;;;;;;5.57;2.80;;;15.70;99.90;;;;;;5935437;30;20281;-68
2022/06/17 01:48:46;;;;;;;6.68;3.08;;;15.70;99.90;;;;;;5936122;29;20322;-68
2022/06/17 01:51:56;;;;;;;3.15;2.78;;;15.80;99.90;;;;;;5964814;29;20447;-68
2022/06/17 01:55:10;;;;;;;4.40;2.45;;;15.80;99.90;;;;;;5934366;30;20300;-68
2022/06/17 01:58:22;;;;;;;2.80;2.60;;;15.90;99.90;;;;;;5934628;30;20305;-68
2022/06/17 02:01:29;;;;;;;3.72;2.72;;;15.90;99.90;;;;;;5936473;30;20560;-68
2022/06/17 02:04:39;;;;;;;6.25;2.90;;;15.80;99.90;;;;;;5933923;30;20305;-69
2022/06/17 02:07:48;;;;;;;7.38;2.67;;;15.80;99.90;;;;;;5934505;29;20304;-68
2022/06/17 02:10:55;;;;;;;6.90;3.00;;;15.80;99.90;;;;;;5934463;30;20281;-69
2022/06/17 02:14:07;;;;;;;3.05;2.85;;;15.90;99.90;;;;;;5934238;30;20309;-68
2022/06/17 02:17:27;;;;;;;7.82;2.95;;;15.90;99.90;;;;;;5935618;29;20286;-69
2022/06/17 02:20:42;;;;;;;6.88;2.88;;;15.90;99.90;;;;;;5972952;29;20309;-69
2022/06/17 02:23:47;;;;;;;5.53;3.13;;;15.80;99.90;;;;;;5957667;29;20618;-69
2022/06/17 02:26:57;;;;;;;4.38;3.08;;;15.70;99.90;;;;;;5956526;30;20580;-69
2022/06/17 02:30:03;;;;;;;8.75;3.60;;;15.70;99.90;;;;;;5956178;29;20468;-68
2022/06/17 02:33:15;;;;;;;6.22;2.83;;;15.80;99.90;;;;;;5955910;30;20308;-68
2022/06/17 02:36:26;;;;;;;8.35;3.58;;;15.90;99.90;;;;;;5956583;30;20285;-68
2022/06/17 02:39:32;;;;;;;8.38;3.17;;;15.80;99.90;;;;;;5957311;29;20304;-68
2022/06/17 02:42:40;;;;;;;3.08;2.83;;;15.80;99.90;;;;;;5955801;29;20312;-68
2022/06/17 02:45:50;;;;;;;3.13;2.90;;;15.90;99.90;;;;;;5956249;30;20567;-68
2022/06/17 02:49:00;;;;;;;5.65;2.90;;;15.90;99.90;;;;;;5970571;29;20313;-68
2022/06/17 02:52:16;;;;;;;10.25;3.17;;;16.00;99.90;;;;;;5955324;29;20300;-68
2022/06/17 02:55:30;;;;;;;7.57;3.05;;;15.90;99.90;;;;;;5956375;29;20587;-68
2022/06/17 02:58:49;;;;;;;4.88;2.80;;;16.00;99.90;;;;;;5957008;29;20304;-68
2022/06/17 03:01:59;;;;;;;4.93;2.65;;;16.10;99.90;;;;;;5952537;29;20464;-68
2022/06/17 03:05:21;;;;;;;6.97;2.83;;;16.10;99.90;;;;;;5955650;30;20273;-68
2022/06/17 03:08:29;;;;;;;3.60;2.88;;;16.10;99.90;;;;;;5956471;29;20308;-68
2022/06/17 03:11:36;;;;;;;10.68;2.65;;;16.10;99.90;;;;;;5955540;30;20449;-68
2022/06/17 03:14:48;;;;;;;3.58;2.63;;;16.10;99.90;;;;;;5955193;29;20300;-69
2022/06/17 03:17:53;;;;;;;5.00;3.00;;;16.20;99.90;;;;;;5970445;29;20490;-68
2022/06/17 03:21:00;;;;;;;5.05;2.70;;;16.20;99.90;;;;;;5983545;29;20299;-68
2022/06/17 03:24:13;;;;;;;4.65;2.58;;;16.20;99.90;;;;;;5985031;29;20312;-68
2022/06/17 03:27:24;;;;;;;4.13;3.10;;;16.30;99.90;;;;;;5955086;29;20312;-68
2022/06/17 03:30:36;;;;;;;2.53;2.40;;;16.30;99.90;;;;;;5955800;30;20281;-68
2022/06/17 03:33:45;;;;;;;3.72;2.50;;;16.30;99.90;;;;;;5954945;29;20623;-68
2022/06/17 03:36:55;;;;;;;2.80;2.58;;;16.30;99.90;;;;;;5955713;30;20277;-68
2022/06/17 03:40:05;;;;;;;2.50;2.40;;;16.40;99.90;;;;;;5954243;30;20300;-68
2022/06/17 03:43:20;;;;;;;2.50;2.30;;;16.40;99.90;;;;;;5954520;29;20307;-68
2022/06/17 03:46:28;;;;;;;2.15;2.10;;;16.40;99.90;;;;;;5955050;30;20280;-68
2022/06/17 03:49:40;;;;;;;2.10;2.03;;;16.50;99.90;;;;;;5970052;29;20302;-69
2022/06/17 03:52:53;;;;;;;2.13;2.08;;;16.60;99.90;;;;;;5954492;29;20338;-67
2022/06/17 03:56:08;;;;;;;2.50;2.30;;;16.60;99.90;;;;;;5954706;30;20276;-66
2022/06/17 03:59:19;;;;;;;3.83;1.98;;;16.70;99.90;;;;;;5954340;30;20304;-68
2022/06/17 04:02:29;;;;;;;3.53;2.03;;;16.60;99.90;;;;;;5969955;29;20482;-69
2022/06/17 04:05:34;;;;;;;4.93;2.00;;;16.60;99.90;;;;;;5954765;30;20284;-68
2022/06/17 04:08:53;;;;;;;2.22;2.10;;;16.70;99.90;;;;;;5954779;29;20300;-68
2022/06/17 04:12:03;;;;;;;1.92;1.83;;;16.80;99.90;;;;;;5954964;29;20272;-68
2022/06/17 04:15:30;;;;;;;2.70;2.00;;;16.80;99.90;;;;;;5955169;30;20308;-68
2022/06/17 04:18:37;;;;;;;1.80;1.80;;;16.80;99.90;;;;;;5954320;30;20309;-68
2022/06/17 04:21:42;;;;;;;1.95;1.85;;;16.80;99.90;;;;;;5987000;29;20311;-68
2022/06/17 04:24:54;;;;;;;2.50;2.40;;;16.90;99.90;;;;;;5976842;29;20307;-68
2022/06/17 04:28:14;;;;;;;4.22;2.22;;;16.90;99.90;;;;;;5980979;29;20324;-69
2022/06/17 04:31:25;;;;;;;2.83;1.63;;;17.00;99.90;;;;;;5981576;29;20547;-69
2022/06/17 04:34:38;;;;;;;1.73;1.73;;;17.00;99.90;;;;;;5981190;29;20311;-69
2022/06/17 04:37:46;;;;;;;1.60;1.60;;;17.00;99.90;;;;;;5981043;29;20299;-69
2022/06/17 04:41:13;;;;;;;1.65;1.55;;;17.10;99.90;;;;;;5983058;29;20280;-69
2022/06/17 04:44:46;;;;;;;1.55;1.33;;;17.10;99.90;;;;;;5981000;29;20312;-68
2022/06/17 04:47:52;;;;;;;1.60;1.50;;;17.10;99.90;;;;;;5980830;29;20307;-69
2022/06/17 04:51:01;;;;;;;4.57;1.50;;;17.10;99.90;;;;;;5981394;29;20300;-69
2022/06/17 04:54:07;;;;;;;1.30;1.30;;;17.10;99.90;;;;;;5981818;29;20316;-69
2022/06/17 04:57:43;;;;;;;1.52;1.40;;;17.20;99.90;;;;;;5980644;29;20300;-69
2022/06/17 05:00:54;;;;;;;2.45;1.38;;;17.30;99.90;;;;;;5980805;29;20280;-69
2022/06/17 05:04:19;;;;;;;1.67;1.50;;;17.30;99.90;;;;;;5981970;29;20471;-68
2022/06/17 05:07:41;;;;;;;1.30;1.30;;;17.30;99.90;;;;;;5981663;29;20304;-68
2022/06/17 05:11:11;;;;;;;1.90;1.85;;;17.30;99.90;;;;;;5980751;29;20277;-68
2022/06/17 05:14:23;;;;;;;1.58;1.50;;;17.30;99.90;;;;;;5981608;29;20308;-68
2022/06/17 05:17:29;;;;;;;1.30;1.30;;;17.40;99.90;;;;;;5994932;29;20308;-69
2022/06/17 05:20:34;;;;;;;1.30;1.30;;;17.50;99.90;;;;;;5995325;29;20472;-68
2022/06/17 05:23:42;;;;;;;6.05;1.50;;;17.60;99.90;;;;;;5994811;29;20307;-68
2022/06/17 05:26:48;;;;;;;1.50;1.40;;;17.70;99.90;;;;;;5995156;29;20284;-68
2022/06/17 05:29:53;;;;;;;1.85;1.42;;;17.80;99.90;;;;;;5994491;29;20303;-68
2022/06/17 05:33:01;;;;;;;3.13;1.38;;;18.00;99.90;;;;;;5995202;29;20308;-68
2022/06/17 05:36:07;;;;;;;1.40;1.40;;;18.10;99.90;;;;;;5994868;29;20473;-69
2022/06/17 05:39:15;;;;;;;2.65;1.40;;;18.20;99.90;;;;;;5993094;29;20305;-69
2022/06/17 05:42:21;;;;;;;1.95;1.10;;;18.30;99.90;;;;;;5993950;29;20299;-69
2022/06/17 05:45:28;;;;;;;1.48;1.20;;;18.30;99.90;;;;;;5994559;29;20611;-69
2022/06/17 05:48:52;;;;;;;1.13;1.13;;;18.30;99.90;;;;;;5981203;29;20488;-69
2022/06/17 05:52:12;;;;;;;1.40;1.40;;;18.40;99.90;;;;;;5994208;29;20280;-69
2022/06/17 05:55:30;;;;;;;1.30;1.27;;;18.40;99.90;;;;;;5994343;29;20299;-68
2022/06/17 05:58:35;;;;;;;1.17;1.17;;;18.30;99.90;;;;;;5994562;29;20324;-68
2022/06/17 06:01:40;;;;;;;3.33;1.30;;;18.30;99.90;;;;;;5981023;29;20280;-69
2022/06/17 06:05:11;;;;;;;2.05;1.23;;;18.40;99.90;;;;;;5993873;29;20321;-69
2022/06/17 06:08:18;;;;;;;1.20;1.20;;;18.50;99.90;;;;;;5994294;29;20589;-69
2022/06/17 06:11:24;;;;;;;2.60;1.30;;;18.60;99.90;;;;;;5994310;29;20272;-69
2022/06/17 06:14:30;;;;;;;1.38;1.20;;;18.80;99.90;;;;;;5978509;29;20477;-69
2022/06/17 06:17:38;;;;;;;3.60;1.38;;;18.90;99.90;;;;;;5978888;29;20308;-68
2022/06/17 06:20:44;;;;;;;1.73;1.58;;;19.10;99.90;;;;;;5986371;29;20496;-68
2022/06/17 06:23:56;;;;;;;1.25;1.25;;;19.20;99.90;;;;;;5956527;29;20599;-69
2022/06/17 06:27:10;;;;;;;3.45;1.23;;;19.30;99.90;;;;;;5956610;29;20299;-69
2022/06/17 06:30:26;;;;;;;1.92;1.27;;;19.30;99.90;;;;;;5958389;29;20284;-69
2022/06/17 06:33:32;;;;;;;1.65;1.40;;;19.40;99.90;;;;;;5956278;29;20304;-69
2022/06/17 06:36:38;;;;;;;3.85;1.17;;;19.60;99.90;;;;;;5956475;30;20300;-69
2022/06/17 06:39:43;;;;;;;1.20;1.13;;;19.60;99.90;;;;;;5957031;29;20312;-69
2022/06/17 06:42:52;;;;;;;9.52;1.63;;;19.50;99.90;;;;;;5955822;29;20316;-69
2022/06/17 06:46:19;;;;;;;5.93;1.40;;;19.50;99.90;;;;;;5957829;30;20280;-69
2022/06/17 06:49:27;;;;;;;6.75;1.88;;;19.70;99.90;;;;;;5955541;29;20312;-70
2022/06/17 06:52:33;;;;;;;9.27;1.50;;;20.00;99.90;;;;;;5955607;29;20300;-67
2022/06/17 06:55:40;;;;;;;3.25;1.10;;;20.10;99.90;;;;;;5956261;30;20301;-68
2022/06/17 06:58:47;;;;;;;3.88;1.17;;;20.20;99.90;;;;;;5957275;29;20312;-67
2022/06/17 07:01:53;;;;;;;3.17;1.33;;;20.30;99.90;;;;;;5956963;30;20281;-67
2022/06/17 07:04:59;;;;;;;2.17;1.10;;;20.40;99.90;;;;;;5955383;29;20451;-67
2022/06/17 07:08:05;;;;;;;5.68;1.52;;;20.50;99.90;;;;;;5955027;29;20309;-67
2022/06/17 07:11:11;;;;;;;3.25;1.10;;;20.60;99.90;;;;;;5957323;29;20277;-68
2022/06/17 07:14:21;;;;;;;1.45;1.30;;;20.60;99.90;;;;;;5956566;29;20300;-68
2022/06/17 07:17:26;;;;;;;5.05;1.33;;;20.60;99.90;;;;;;5956538;29;20304;-68
2022/06/17 07:20:42;;;;;;;2.50;1.30;;;20.70;99.90;;;;;;5973194;29;20451;-68
2022/06/17 07:23:48;;;;;;;1.55;1.40;;;20.80;99.90;;;;;;6001374;29;20305;-68
2022/06/17 07:26:53;;;;;;;1.85;1.30;;;20.80;99.90;;;;;;6001455;29;20447;-68
2022/06/17 07:29:59;;;;;;;3.22;1.50;;;20.80;99.90;;;;;;6001207;29;20282;-67
2022/06/17 07:33:06;;;;;;;6.82;1.45;;;20.90;99.90;;;;;;6001317;29;20247;-68
2022/06/17 07:39:53;;;;;;;7.13;1.33;;;21.10;99.90;;;;;;6001359;29;20295;-68
2022/06/17 07:39:54;;;;;;;3.53;1.35;;;21.30;99.90;;;;;;6001192;29;20302;-68
2022/06/17 07:43:00;;;;;;;2.33;1.63;;;21.40;99.90;;;;;;6000841;29;20590;-68
2022/06/17 07:46:08;;;;;;;2.55;1.30;;;21.50;99.90;;;;;;6001734;29;20311;-68
2022/06/17 07:49:14;;;;;;;1.70;1.17;;;21.40;99.90;;;;;;6001195;29;20302;-68
2022/06/17 07:52:19;;;;;;;1.67;1.27;;;21.60;99.90;;;;;;6000960;29;20328;-68
2022/06/17 07:55:25;;;;;;;2.53;1.23;;;21.70;99.90;;;;;;6001063;29;20275;-69
2022/06/17 07:58:31;;;;;;;1.42;1.23;;;21.70;99.90;;;;;;6000821;29;20303;-68
2022/06/17 08:01:37;;;;;;;1.10;1.10;;;21.70;99.90;;;;;;6000520;29;20578;-67
2022/06/17 08:04:42;;;;;;;1.20;1.20;;;21.70;99.90;;;;;;6000530;29;20299;-68
2022/06/17 08:07:48;;;;;;;1.20;1.02;;;21.80;99.90;;;;;;6000436;29;20303;-68
2022/06/17 08:10:56;;;;;;;1.65;1.10;;;21.60;99.90;;;;;;6001244;29;20291;-68
2022/06/17 08:14:01;;;;;;;2.53;1.33;;;21.60;99.90;;;;;;6000557;29;20604;-68
2022/06/17 08:17:08;;;;;;;2.85;1.33;;;21.70;99.90;;;;;;6000072;29;20298;-68
2022/06/17 08:20:19;;;;;;;3.50;1.20;;;21.80;99.90;;;;;;6000799;29;20302;-68
2022/06/17 08:23:25;;;;;;;2.60;1.40;;;21.80;99.90;;;;;;6000334;29;20322;-69
2022/06/17 08:26:30;;;;;;;3.38;1.20;;;21.90;99.90;;;;;;6001256;29;20282;-68
2022/06/17 08:29:35;;;;;;;1.30;1.20;;;22.00;99.80;;;;;;6000182;29;20315;-68
2022/06/17 08:32:56;;;;;;;1.23;1.23;;;21.90;99.60;;;;;;6000139;29;20303;-68
2022/06/17 08:36:06;;;;;;;3.20;1.30;;;21.90;99.90;;;;;;6001086;29;20299;-68
2022/06/17 08:39:13;;;;;;;2.63;1.10;;;21.90;99.50;;;;;;6000134;29;20606;-68
2022/06/17 08:42:32;;;;;;;2.75;1.45;;;21.90;99.60;;;;;;5999909;29;20490;-68
2022/06/17 08:45:45;;;;;;;2.70;1.20;;;22.00;99.10;;;;;;6001172;29;20276;-68
2022/06/17 08:49:12;;;;;;;1.10;1.10;;;22.00;99.10;;;;;;6000100;29;20303;-68
2022/06/17 08:52:33;;;;;;;1.13;1.10;;;22.00;99.20;;;;;;5999895;29;20299;-68
2022/06/17 08:55:45;;;;;;;1.88;1.10;;;22.00;98.20;;;;;;6001020;29;20280;-68
2022/06/17 08:59:01;;;;;;;3.40;1.10;;;22.00;98.40;;;;;;5999616;29;20303;-68
2022/06/17 09:02:19;;;;;;;1.80;0.80;;;22.00;97.50;;;;;;5999458;29;20282;-67
2022/06/17 09:05:40;;;;;;;1.48;1.00;;;22.10;97.90;;;;;;6000614;29;20280;-68
2022/06/17 09:09:10;;;;;;;0.82;0.82;;;22.10;98.10;;;;;;6000001;29;20590;-68
2022/06/17 09:12:22;;;;;;;1.55;1.05;;;22.20;97.40;;;;;;6001059;29;20295;-68
2022/06/17 09:15:37;;;;;;;1.40;1.08;;;22.20;97.60;;;;;;6004337;29;20279;-68
2022/06/17 09:18:44;;;;;;;1.15;1.15;;;22.20;97.40;;;;;;6003579;29;20463;-68
2022/06/17 09:21:53;;;;;;;1.00;1.00;;;22.30;97.70;;;;;;6003740;29;20307;-68
2022/06/17 09:25:03;;;;;;;1.48;1.20;;;22.30;96.80;;;;;;6003309;29;20287;-69
2022/06/17 09:28:15;;;;;;;2.28;0.93;;;22.30;96.90;;;;;;6003675;29;20303;-68
2022/06/17 09:31:25;;;;;;;1.00;1.00;;;22.40;97.30;;;;;;6004325;29;20553;-68
2022/06/17 09:34:42;;;;;;;0.93;0.90;;;22.50;97.50;;;;;;6003564;29;20303;-68
2022/06/17 09:37:54;;;;;;;1.50;1.50;;;22.50;94.10;;;;;;6003125;29;20594;-68
2022/06/17 09:41:03;;;;;;;2.72;1.10;;;22.40;94.90;;;;;;6003995;29;20283;-69
2022/06/17 09:44:14;;;;;;;1.00;1.00;;;22.40;95.00;;;;;;6003538;29;20303;-69
2022/06/17 09:47:24;;;;;;;1.42;1.00;;;22.50;94.70;;;;;;6003522;29;20363;-69
2022/06/17 09:50:35;;;;;;;3.20;0.90;;;22.50;94.00;;;;;;6003838;29;20279;-69
2022/06/17 09:53:48;;;;;;;1.75;1.02;;;22.40;93.90;;;;;;6003313;29;20303;-69
2022/06/17 09:56:59;;;;;;;1.00;1.00;;;22.40;94.70;;;;;;6003231;29;20283;-69
2022/06/17 10:00:08;;;;;;;3.05;0.85;;;22.40;93.20;;;;;;6002910;29;20393;-69
2022/06/17 10:03:22;;;;;;;2.10;1.20;;;22.50;93.80;;;;;;6003103;29;20299;-69
2022/06/17 10:06:36;;;;;;;1.58;0.80;;;22.50;93.80;;;;;;6003595;29;20283;-69
2022/06/17 10:10:01;;;;;;;2.80;0.75;;;22.50;93.90;;;;;;6002700;29;20310;-68
2022/06/17 10:13:21;;;;;;;1.20;0.80;;;22.50;93.70;;;;;;6002975;29;20320;-67
2022/06/17 10:20:19;;;;;;;0.95;0.95;;;22.40;92.60;;;;;;6001789;29;20314;-68
2022/06/17 10:23:34;;;;;;;2.78;1.30;;;22.50;92.90;;;;;;5985413;29;20303;-68
2022/06/17 10:26:54;;;;;;;1.88;1.30;;;22.50;92.20;;;;;;6002672;29;20300;-68
2022/06/17 10:30:06;;;;;;;0.88;0.88;;;22.60;91.90;;;;;;6002070;29;20287;-68
2022/06/17 10:33:17;;;;;;;1.38;0.88;;;22.70;91.30;;;;;;6002136;29;20299;-68
2022/06/17 10:36:23;;;;;;;0.60;0.60;;;22.70;90.30;;;;;;6002563;29;20279;-68
2022/06/17 10:39:30;;;;;;;3.17;0.60;;;22.80;87.40;;;;;;6001896;29;20311;-68
2022/06/17 10:42:36;;;;;;;1.15;0.50;;;22.80;86.70;;;;;;6001585;29;20299;-68
2022/06/17 10:45:42;;;;;;;3.47;0.55;;;23.00;87.10;;;;;;6002375;29;20572;-67
2022/06/17 10:48:53;;;;;;;0.60;0.60;;;22.90;87.20;;;;;;6001574;29;20306;-68
2022/06/17 10:51:59;;;;;;;2.40;0.60;;;23.00;87.80;;;;;;6001499;29;20275;-68
2022/06/17 10:55:06;;;;;;;0.50;0.50;;;23.10;86.30;;;;;;6002227;29;20278;-68
2022/06/17 10:58:17;;;;;;;0.73;0.73;;;23.10;86.50;;;;;;6001607;29;20606;-68
2022/06/17 11:01:24;;;;;;;1.55;1.55;;;23.10;86.50;;;;;;6001949;29;20279;-68
2022/06/17 11:04:34;;;;;;;0.90;0.90;;;23.10;86.00;;;;;;6001641;29;20299;-68
2022/06/17 11:07:51;;;;;;;0.70;0.70;;;23.00;82.80;;;;;;6001376;29;20452;-68
2022/06/17 11:12:02;;;;;;;0.70;0.70;;;23.10;83.60;;;;;;6001806;29;20271;-68
2022/06/17 11:14:30;;;;;;;2.10;1.00;;;23.00;84.90;;;;;;6001668;29;20307;-68
2022/06/17 11:17:40;;;;;;;2.60;0.90;;;23.00;85.40;;;;;;6001078;29;20299;-68
2022/06/17 11:20:57;;;;;;;0.90;0.90;;;22.80;87.00;;;;;;6002092;29;20311;-68
2022/06/17 11:24:03;;;;;;;0.73;0.73;;;22.80;87.90;;;;;;6001269;29;20299;-67
2022/06/17 11:27:23;;;;;;;1.40;0.73;;;22.70;86.30;;;;;;6001403;29;20275;-68
2022/06/17 11:30:34;;;;;;;0.75;0.75;;;22.70;87.60;;;;;;6001381;29;20287;-68
2022/06/17 11:33:56;;;;;;;1.02;0.70;;;22.80;84.60;;;;;;6001105;29;20322;-68
2022/06/17 11:37:15;;;;;;;0.50;0.50;;;22.80;83.10;;;;;;6000948;29;20279;-68
2022/06/17 11:40:23;;;;;;;2.17;0.60;;;22.80;83.70;;;;;;6001724;29;20303;-68
2022/06/17 11:43:35;;;;;;;2.58;0.70;;;22.80;82.70;;;;;;6001213;29;20624;-68
2022/06/17 11:46:51;;;;;;;1.58;0.70;;;23.00;83.30;;;;;;6001325;29;20275;-68
2022/06/17 11:50:01;;;;;;;10.70;0.60;;;23.10;80.20;;;;;;6000581;29;20287;-68
2022/06/17 11:53:11;;;;;;;0.80;0.80;;;23.10;79.30;;;;;;6000744;29;20307;-68
2022/06/17 11:56:35;;;;;;;1.35;0.80;;;23.20;76.10;;;;;;6001487;29;20551;-68
2022/06/17 11:59:45;;;;;;;1.27;0.95;;;23.30;75.50;;;;;;5984354;29;20327;-68
2022/06/17 12:02:58;;;;;;;0.40;0.40;;;23.30;76.80;;;;;;6000747;29;20307;-68
2022/06/17 12:06:06;;;;;;;0.60;0.60;;;23.30;77.00;;;;;;6000960;29;20284;-68
2022/06/17 12:09:22;;;;;;;0.65;0.65;;;23.30;77.50;;;;;;6000865;29;20315;-68
2022/06/17 12:12:28;;;;;;;0.60;0.60;;;23.30;75.50;;;;;;5978145;29;20485;-68
2022/06/17 12:15:38;;;;;;;0.68;0.68;;;23.30;75.80;;;;;;5978784;29;20280;-68
2022/06/17 12:18:48;;;;;;;1.67;0.77;;;23.40;73.10;;;;;;5977927;29;20313;-68
2022/06/17 12:21:58;;;;;;;0.50;0.50;;;23.40;73.70;;;;;;5978159;29;20308;-69
2022/06/17 12:25:14;;;;;;;0.68;0.68;;;23.50;75.00;;;;;;5977329;29;20296;-68
2022/06/17 12:28:28;;;;;;;0.70;0.70;;;23.60;75.30;;;;;;5977975;29;20607;-68
2022/06/17 12:31:43;;;;;;;0.40;0.40;;;23.50;74.30;;;;;;5978629;29;20283;-68
2022/06/17 12:35:04;;;;;;;1.13;0.68;;;23.40;73.30;;;;;;5977509;29;20304;-68
2022/06/17 12:38:19;;;;;;;1.20;1.10;;;23.40;73.30;;;;;;5977752;29;20321;-68
2022/06/17 12:41:30;;;;;;;0.95;0.95;;;23.40;72.90;;;;;;5978169;29;20295;-68
2022/06/17 12:44:52;;;;;;;0.82;0.80;;;23.60;72.60;;;;;;5961413;29;20299;-68
2022/06/17 12:48:11;;;;;;;2.83;0.80;;;23.80;75.00;;;;;;5979604;29;20304;-68
2022/06/17 12:54:59;;;;;;;0.80;0.80;;;24.10;77.30;;;;;;5982008;29;20304;-69
2022/06/17 12:58:28;;;;;;;0.65;0.65;;;24.30;74.60;;;;;;5982073;29;20598;-68
2022/06/17 13:01:44;;;;;;;0.80;0.80;;;24.30;74.20;;;;;;5981632;29;20483;-68
2022/06/17 13:05:08;;;;;;;2.03;0.63;;;24.60;75.20;;;;;;5981572;29;20304;-69
2022/06/17 13:08:29;;;;;;;1.85;0.90;;;24.80;71.60;;;;;;5981598;29;20308;-68
2022/06/17 13:11:40;;;;;;;2.97;0.80;;;25.00;71.70;;;;;;5997942;29;20280;-68
2022/06/17 13:14:55;;;;;;;1.75;0.70;;;24.90;72.70;;;;;;6003728;29;20379;-68
2022/06/17 13:18:06;;;;;;;1.23;0.70;;;25.00;70.30;;;;;;6003704;29;20379;-68
2022/06/17 13:21:18;;;;;;;1.55;0.70;;;25.00;71.00;;;;;;6004280;29;20319;-68
2022/06/17 13:24:32;;;;;;;0.70;0.70;;;25.10;70.90;;;;;;6003858;29;20308;-69
2022/06/17 13:27:43;;;;;;;2.00;0.80;;;25.10;69.00;;;;;;6003407;29;20307;-68
2022/06/17 13:30:56;;;;;;;0.70;0.70;;;24.80;75.40;;;;;;6003986;29;20283;-68
2022/06/17 13:34:05;;;;;;;1.38;0.70;;;24.80;76.90;;;;;;6003688;29;20307;-68
2022/06/17 13:37:16;;;;;;;0.60;0.60;;;24.90;77.60;;;;;;6003422;29;20278;-68
2022/06/17 13:40:29;;;;;;;0.80;0.80;;;24.80;74.60;;;;;;6003684;29;20484;-68
2022/06/17 13:43:42;;;;;;;0.80;0.80;;;25.00;69.60;;;;;;6003307;29;20299;-68
2022/06/17 13:46:57;;;;;;;0.75;0.75;;;25.10;69.10;;;;;;6003523;29;20493;-68
2022/06/17 13:50:14;;;;;;;1.02;0.85;;;25.40;70.20;;;;;;6002371;29;20440;-68
2022/06/17 13:53:35;;;;;;;1.88;1.00;;;25.40;64.60;;;;;;6002801;29;20312;-69
2022/06/17 13:56:50;;;;;;;2.80;0.80;;;25.30;68.20;;;;;;6003770;29;20275;-68
2022/06/17 13:59:57;;;;;;;1.45;0.80;;;25.20;63.40;;;;;;6001302;29;20319;-68
2022/06/17 14:03:06;;;;;;;0.80;0.80;;;25.20;68.20;;;;;;6002870;29;20299;-68
2022/06/17 14:06:12;;;;;;;0.77;0.77;;;25.70;64.50;;;;;;6002969;29;20274;-68
2022/06/17 14:09:26;;;;;;;1.13;0.70;;;26.10;65.60;;;;;;6002758;29;20465;-68
2022/06/17 14:12:45;;;;;;;3.55;3.25;;;26.00;59.70;;;;;;5980352;29;20307;-68
2022/06/17 14:16:11;;;;;;;2.92;1.20;;;25.90;64.00;;;;;;5980613;29;20464;-68
2022/06/17 14:19:26;;;;;;;1.30;0.70;;;25.60;60.00;;;;;;5979716;29;20304;-68
2022/06/17 14:22:36;;;;;;;1.45;0.73;;;25.50;58.90;;;;;;5979808;29;20304;-69
2022/06/17 14:25:49;;;;;;;0.73;0.73;;;25.50;64.40;;;;;;5979869;29;20463;-68
2022/06/17 14:29:13;;;;;;;0.90;0.90;;;25.40;60.10;;;;;;5979845;29;20309;-68
2022/06/17 14:32:55;;;;;;;0.68;0.68;;;25.40;57.80;;;;;;5979610;29;20304;-69
2022/06/17 14:36:01;;;;;;;0.70;0.70;;;25.40;59.10;;;;;;5980064;29;20276;-68
2022/06/17 14:39:19;;;;;;;0.73;0.73;;;25.60;57.80;;;;;;5979690;29;20409;-68
2022/06/17 14:42:52;;;;;;;0.82;0.82;;;25.60;56.60;;;;;;5979630;29;20304;-67
2022/06/17 14:46:02;;;;;;;1.10;1.10;;;25.90;61.40;;;;;;5979395;29;20293;-68
2022/06/17 14:49:42;;;;;;;1.45;1.10;;;26.60;59.30;;;;;;5979392;29;20323;-68
2022/06/17 14:53:23;;;;;;;0.90;0.90;;;26.70;59.50;;;;;;5979510;29;20312;-69
2022/06/17 14:56:47;;;;;;;3.20;1.17;;;26.40;59.90;;;;;;5979915;29;20276;-69
2022/06/17 15:00:03;;;;;;;1.83;1.02;;;26.20;62.90;;;;;;5979531;29;20315;-69
2022/06/17 15:03:17;;;;;;;0.90;0.90;;;26.10;63.30;;;;;;5979233;29;20308;-69
2022/06/17 15:06:27;;;;;;;2.05;1.10;;;26.00;62.60;;;;;;5979743;29;20276;-69
2022/06/17 15:09:36;;;;;;;1.85;0.88;;;26.00;64.40;;;;;;5980171;29;20303;-69
2022/06/17 15:12:49;;;;;;;1.20;1.20;;;26.10;65.00;;;;;;6001584;29;20303;-68
2022/06/17 15:15:57;;;;;;;1.75;1.10;;;26.10;64.40;;;;;;6001664;29;20278;-69
2022/06/17 15:19:09;;;;;;;1.20;1.20;;;26.00;65.70;;;;;;6001547;29;20307;-69
2022/06/17 15:22:24;;;;;;;1.10;1.10;;;26.00;66.80;;;;;;6000910;29;20307;-69
2022/06/17 15:25:52;;;;;;;1.50;1.50;;;25.80;68.80;;;;;;6002288;29;20279;-69
2022/06/17 15:29:00;;;;;;;1.15;1.10;;;25.70;71.10;;;;;;6001667;29;20598;-68
2022/06/17 15:32:15;;;;;;;1.27;1.27;;;25.90;69.80;;;;;;6001372;29;20279;-69
2022/06/17 15:35:24;;;;;;;2.33;1.20;;;26.10;69.30;;;;;;6001775;29;20279;-69
2022/06/17 15:38:33;;;;;;;1.27;1.00;;;25.90;69.50;;;;;;6001095;29;20303;-68
2022/06/17 15:41:50;;;;;;;7.53;1.95;;;25.50;70.60;;;;;;6001563;29;20299;-68
2022/06/17 15:45:00;;;;;;;1.10;1.10;;;25.20;72.40;;;;;;6000507;29;20570;-69
2022/06/17 15:48:09;;;;;;;1.50;1.23;;;25.00;72.90;;;;;;6001123;29;20307;-68
2022/06/17 15:51:15;;;;;;;1.98;1.10;;;24.80;73.60;;;;;;6001164;29;20275;-68
2022/06/17 15:54:22;;;;;;;1.60;1.50;;;24.70;76.30;;;;;;5984061;29;20314;-68
2022/06/17 15:57:33;;;;;;;1.10;1.10;;;24.50;77.00;;;;;;6000463;29;20299;-68
2022/06/17 16:00:39;;;;;;;1.77;1.27;;;24.50;76.10;;;;;;6001420;29;20279;-68
2022/06/17 16:03:53;;;;;;;1.90;1.80;;;24.30;76.20;;;;;;6000615;29;20327;-68
2022/06/17 16:07:19;;;;;;;1.42;1.33;;;24.30;77.90;;;;;;6000445;29;20442;-67
2022/06/17 16:10:30;;;;;;;1.40;1.40;;;24.10;79.00;;;;;;6000882;29;20562;-68
2022/06/17 16:13:38;;;;;;;1.27;1.27;;;24.00;80.30;;;;;;6000348;29;20319;-67
2022/06/17 16:16:51;;;;;;;1.50;1.50;;;23.90;79.80;;;;;;6001067;29;20287;-67
2022/06/17 16:19:58;;;;;;;2.15;1.70;;;23.80;77.60;;;;;;6000088;29;20303;-68
2022/06/17 16:23:30;;;;;;;1.60;1.60;;;23.80;77.70;;;;;;6002880;29;20310;-68
2022/06/17 16:26:39;;;;;;;1.80;1.20;;;23.80;78.10;;;;;;6005599;29;20275;-68
2022/06/17 16:30:05;;;;;;;1.95;1.85;;;23.90;77.30;;;;;;6004659;29;20495;-68
2022/06/17 16:33:27;;;;;;;1.25;1.25;;;24.00;75.50;;;;;;6004676;29;20303;-68
2022/06/17 16:36:36;;;;;;;1.10;1.10;;;24.00;76.00;;;;;;6005120;29;20290;-68
2022/06/17 16:39:42;;;;;;;1.25;1.25;;;24.00;76.10;;;;;;6004450;29;20332;-68
2022/06/17 16:46:14;;;;;;;1.40;1.30;;;24.00;74.80;;;;;;6004922;29;20279;-68
2022/06/17 16:49:20;;;;;;;6.90;1.33;;;23.90;75.80;;;;;;6004495;29;20482;-69